Time;durP1;ratioP1;P1;durP2;ratioP2;P2;SDS_P1;SDS_P2;PMS_P1;PMS_P2;Temp;Humidity;BMP_temperature;BMP_pressure;BME280_temperature;BME280_humidity;BME280_pressure;Samples;Min_cycle;Max_cycle;Signal;HPM_P1;HPM_P2
2021/01/09 00:00:52;;;;;;;41.67;17.27;;;1.50;99.90;;;;;;5014577;28;20034;-60
2021/01/09 00:03:18;;;;;;;43.92;18.35;;;1.50;99.90;;;;;;5014277;28;20033;-60
2021/01/09 00:05:44;;;;;;;47.53;18.92;;;1.50;99.90;;;;;;5014517;28;20030;-60
2021/01/09 00:08:12;;;;;;;40.03;17.80;;;1.50;99.90;;;;;;5014645;28;20034;-60
2021/01/09 00:10:38;;;;;;;42.83;18.17;;;1.60;99.90;;;;;;5014454;28;20038;-60
2021/01/09 00:13:04;;;;;;;48.25;19.88;;;1.50;99.90;;;;;;5014399;28;20438;-60
2021/01/09 00:15:29;;;;;;;43.70;18.50;;;1.50;99.90;;;;;;5014424;28;20076;-60
2021/01/09 00:17:55;;;;;;;43.95;19.15;;;1.50;99.90;;;;;;5014620;28;20034;-60
2021/01/09 00:20:23;;;;;;;40.92;18.40;;;1.50;99.90;;;;;;5014057;28;20034;-60
2021/01/09 00:22:49;;;;;;;38.80;17.85;;;1.50;99.90;;;;;;5014457;28;20033;-60
2021/01/09 00:25:16;;;;;;;41.45;18.10;;;1.40;99.90;;;;;;5014059;28;20057;-60
2021/01/09 00:27:43;;;;;;;43.17;17.70;;;1.40;99.90;;;;;;5013959;28;20076;-60
2021/01/09 00:30:09;;;;;;;43.35;17.48;;;1.40;99.90;;;;;;5013914;28;20046;-60
2021/01/09 00:32:35;;;;;;;44.78;19.92;;;1.40;99.90;;;;;;5014093;28;20076;-60
2021/01/09 00:35:03;;;;;;;44.40;19.27;;;1.40;99.90;;;;;;5014263;28;20109;-61
2021/01/09 00:37:29;;;;;;;43.92;19.02;;;1.40;99.90;;;;;;5013975;28;20033;-60
2021/01/09 00:39:55;;;;;;;41.95;17.90;;;1.50;99.90;;;;;;5014095;28;20115;-60
2021/01/09 00:42:21;;;;;;;44.22;19.50;;;1.50;99.90;;;;;;5013703;28;20053;-60
2021/01/09 00:44:47;;;;;;;45.15;20.15;;;1.50;99.90;;;;;;5013742;28;20038;-60
2021/01/09 00:47:13;;;;;;;47.75;18.98;;;1.50;99.90;;;;;;5013864;28;20026;-60
2021/01/09 00:49:39;;;;;;;40.80;18.48;;;1.60;99.90;;;;;;5013407;28;20053;-61
2021/01/09 00:52:05;;;;;;;38.97;18.23;;;1.70;99.90;;;;;;5013831;28;20112;-60
2021/01/09 00:54:32;;;;;;;40.88;18.27;;;1.60;99.90;;;;;;5013638;28;20172;-60
2021/01/09 00:56:58;;;;;;;36.38;16.00;;;1.60;99.90;;;;;;5013337;28;20026;-61
2021/01/09 00:59:25;;;;;;;38.75;16.80;;;1.70;99.90;;;;;;5013417;28;20121;-60
2021/01/09 01:01:53;;;;;;;38.45;17.45;;;1.60;99.90;;;;;;5013482;28;20067;-59
2021/01/09 01:04:19;;;;;;;37.55;17.83;;;1.60;99.90;;;;;;5013540;28;20026;-60
2021/01/09 01:06:47;;;;;;;39.40;18.17;;;1.60;99.90;;;;;;5013303;28;20041;-60
2021/01/09 01:09:13;;;;;;;39.47;17.23;;;1.60;99.90;;;;;;5013414;28;20030;-59
2021/01/09 01:11:41;;;;;;;39.35;17.65;;;1.60;99.90;;;;;;5013489;28;20038;-60
2021/01/09 01:14:07;;;;;;;37.45;16.40;;;1.60;99.90;;;;;;5012117;28;20030;-60
2021/01/09 01:16:34;;;;;;;36.65;16.77;;;1.60;99.90;;;;;;5013058;28;20582;-60
2021/01/09 01:18:59;;;;;;;37.33;17.67;;;1.60;99.90;;;;;;5013467;28;20128;-61
2021/01/09 01:21:25;;;;;;;38.05;17.33;;;1.60;99.90;;;;;;5013251;28;20034;-61
2021/01/09 01:23:51;;;;;;;42.63;18.70;;;1.60;99.90;;;;;;5013052;28;20126;-61
2021/01/09 01:26:18;;;;;;;71.00;29.55;;;1.60;99.90;;;;;;5013321;28;20050;-60
2021/01/09 01:28:43;;;;;;;41.85;18.95;;;1.60;99.90;;;;;;5012753;28;20050;-60
2021/01/09 01:31:10;;;;;;;88.30;36.42;;;1.70;99.90;;;;;;5013171;28;20040;-60
2021/01/09 01:33:40;;;;;;;47.83;20.23;;;1.80;99.90;;;;;;5013064;28;20029;-60
2021/01/09 01:36:10;;;;;;;42.13;18.10;;;1.80;99.90;;;;;;5013201;28;20061;-60
2021/01/09 01:38:37;;;;;;;40.78;18.08;;;1.70;99.90;;;;;;5012833;28;20084;-60
2021/01/09 01:41:09;;;;;;;48.08;18.20;;;1.60;99.90;;;;;;5011879;28;20026;-61
2021/01/09 01:43:37;;;;;;;37.47;16.88;;;1.70;99.90;;;;;;5012685;28;20029;-60
2021/01/09 01:46:05;;;;;;;41.25;17.10;;;1.70;99.90;;;;;;5012928;28;20133;-60
2021/01/09 01:48:32;;;;;;;38.55;16.80;;;1.60;99.90;;;;;;5012706;28;20037;-60
2021/01/09 01:50:59;;;;;;;39.17;17.52;;;1.50;99.90;;;;;;5012579;28;20117;-60
2021/01/09 01:53:30;;;;;;;40.65;16.98;;;1.50;99.90;;;;;;5011319;28;20040;-60
2021/01/09 01:55:56;;;;;;;35.13;16.08;;;1.50;99.90;;;;;;5011696;28;20037;-61
2021/01/09 01:58:23;;;;;;;38.58;16.15;;;1.40;99.90;;;;;;5012236;28;20046;-61
2021/01/09 02:00:49;;;;;;;36.17;16.67;;;1.30;99.90;;;;;;5012453;28;20038;-61
2021/01/09 02:03:16;;;;;;;39.00;17.58;;;1.40;99.90;;;;;;5012330;28;20034;-61
2021/01/09 02:05:59;;;;;;;37.38;16.13;;;1.40;99.90;;;;;;5012590;28;20053;-61
2021/01/09 02:08:33;;;;;;;35.90;15.20;;;1.40;99.90;;;;;;5012574;28;20034;-61
2021/01/09 02:11:06;;;;;;;36.03;15.88;;;1.50;99.90;;;;;;5011545;28;20036;-60
2021/01/09 02:13:43;;;;;;;37.15;16.95;;;1.40;99.90;;;;;;5012534;28;20044;-60
2021/01/09 02:16:11;;;;;;;32.08;15.65;;;1.30;99.90;;;;;;5011521;28;20026;-60
2021/01/09 02:18:41;;;;;;;36.83;16.33;;;1.30;99.90;;;;;;5011197;28;20116;-61
2021/01/09 02:21:28;;;;;;;35.80;16.92;;;1.20;99.90;;;;;;5012527;28;20037;-60
2021/01/09 02:23:54;;;;;;;35.47;16.65;;;1.20;99.90;;;;;;5011202;28;20065;-61
2021/01/09 02:26:20;;;;;;;34.90;16.15;;;1.30;99.90;;;;;;5012555;28;20065;-60
2021/01/09 02:28:46;;;;;;;36.63;16.70;;;1.30;99.90;;;;;;5010639;28;20050;-61
2021/01/09 02:31:14;;;;;;;32.72;15.45;;;1.30;99.90;;;;;;5012245;28;20034;-60
2021/01/09 02:33:41;;;;;;;36.80;15.30;;;1.30;99.90;;;;;;5011998;28;20038;-60
2021/01/09 02:36:08;;;;;;;34.92;15.95;;;1.20;99.90;;;;;;5012416;28;20061;-60
2021/01/09 02:38:36;;;;;;;32.70;15.98;;;1.20;99.90;;;;;;5010773;28;20034;-60
2021/01/09 02:41:03;;;;;;;32.65;15.13;;;1.20;99.90;;;;;;5012351;28;20077;-59
2021/01/09 02:43:29;;;;;;;41.55;16.13;;;1.10;99.90;;;;;;5010671;28;20046;-59
2021/01/09 02:45:55;;;;;;;37.13;15.52;;;1.10;99.90;;;;;;5012355;28;20117;-60
2021/01/09 02:48:21;;;;;;;38.72;16.58;;;1.20;99.90;;;;;;5012232;28;20061;-59
2021/01/09 02:50:47;;;;;;;36.75;15.55;;;1.40;99.90;;;;;;5012070;28;20093;-60
2021/01/09 02:53:13;;;;;;;34.72;14.25;;;1.40;99.90;;;;;;5012304;28;20026;-60
2021/01/09 02:55:39;;;;;;;32.03;14.38;;;1.40;99.90;;;;;;5012054;28;20069;-60
2021/01/09 02:58:05;;;;;;;30.73;13.38;;;1.30;99.90;;;;;;5012182;28;20036;-60
2021/01/09 03:00:31;;;;;;;27.48;13.15;;;1.30;99.90;;;;;;5011944;28;20030;-60
2021/01/09 03:02:57;;;;;;;30.45;14.20;;;1.20;99.90;;;;;;5012135;28;20034;-60
2021/01/09 03:05:23;;;;;;;30.13;12.93;;;1.10;99.90;;;;;;5012079;28;20052;-59
2021/01/09 03:07:49;;;;;;;29.30;13.75;;;1.10;99.90;;;;;;5011580;28;20034;-61
2021/01/09 03:10:14;;;;;;;30.25;12.98;;;1.10;99.90;;;;;;5014648;28;20034;-60
2021/01/09 03:12:41;;;;;;;30.17;13.60;;;1.00;99.90;;;;;;5015693;28;20425;-60
2021/01/09 03:15:07;;;;;;;30.50;13.07;;;0.90;99.90;;;;;;5014571;28;20065;-60
2021/01/09 03:17:33;;;;;;;24.65;12.10;;;0.80;99.90;;;;;;5015588;28;20029;-60
2021/01/09 03:19:59;;;;;;;30.02;12.38;;;0.70;99.90;;;;;;5015647;28;20030;-60
2021/01/09 03:22:25;;;;;;;31.42;12.75;;;0.70;99.90;;;;;;5015660;28;20102;-60
2021/01/09 03:24:51;;;;;;;27.17;12.63;;;0.70;99.90;;;;;;5015423;28;20046;-61
2021/01/09 03:27:17;;;;;;;25.63;11.75;;;0.70;99.90;;;;;;5015182;28;20037;-60
2021/01/09 03:29:43;;;;;;;26.45;12.88;;;0.60;99.90;;;;;;5014937;28;20046;-60
2021/01/09 03:32:09;;;;;;;28.02;12.50;;;0.60;99.90;;;;;;5015454;28;20049;-60
2021/01/09 03:34:35;;;;;;;25.83;11.38;;;0.50;99.90;;;;;;5014850;28;20034;-61
2021/01/09 03:37:01;;;;;;;27.77;12.13;;;0.50;99.90;;;;;;5014977;28;20026;-60
2021/01/09 03:39:26;;;;;;;23.98;11.73;;;0.50;99.90;;;;;;5015195;28;20030;-60
2021/01/09 03:41:52;;;;;;;27.40;11.23;;;0.60;99.90;;;;;;5015141;28;20084;-60
2021/01/09 03:44:18;;;;;;;29.48;11.40;;;0.70;99.90;;;;;;5015246;28;20048;-61
2021/01/09 03:46:44;;;;;;;24.77;11.18;;;0.80;99.90;;;;;;5014962;28;20029;-61
2021/01/09 03:49:10;;;;;;;23.80;10.43;;;0.70;99.90;;;;;;5014901;28;20436;-61
2021/01/09 03:51:36;;;;;;;27.02;10.73;;;0.70;99.90;;;;;;5014905;28;20030;-61
2021/01/09 03:54:02;;;;;;;30.02;11.43;;;0.60;99.90;;;;;;5014610;28;20056;-61
2021/01/09 03:56:28;;;;;;;23.48;11.10;;;0.60;99.90;;;;;;5014954;28;20052;-61
2021/01/09 03:58:54;;;;;;;24.38;10.40;;;0.50;99.90;;;;;;5014714;28;20065;-61
2021/01/09 04:01:20;;;;;;;22.33;9.95;;;0.40;99.90;;;;;;5014775;28;20033;-60
2021/01/09 04:03:46;;;;;;;22.88;10.45;;;0.40;99.90;;;;;;5014736;28;20030;-60
2021/01/09 04:06:12;;;;;;;22.25;9.98;;;0.40;99.90;;;;;;5014792;28;20033;-60
2021/01/09 04:08:37;;;;;;;23.10;10.45;;;0.40;99.90;;;;;;5014295;28;20038;-60
2021/01/09 04:11:03;;;;;;;23.30;10.45;;;0.40;99.90;;;;;;5013205;28;20026;-60
2021/01/09 04:13:29;;;;;;;20.75;9.52;;;0.40;99.90;;;;;;5014684;28;20037;-60
2021/01/09 04:15:55;;;;;;;23.65;10.43;;;0.40;99.90;;;;;;5014622;28;20030;-60
2021/01/09 04:18:21;;;;;;;24.55;10.30;;;0.30;99.90;;;;;;5014664;28;20034;-61
2021/01/09 04:20:47;;;;;;;22.25;10.52;;;0.30;99.90;;;;;;5014044;28;20109;-61
2021/01/09 04:23:13;;;;;;;29.42;11.00;;;0.30;99.90;;;;;;5014278;28;20045;-61
2021/01/09 04:25:39;;;;;;;22.08;11.27;;;0.30;99.90;;;;;;5014289;28;20030;-61
2021/01/09 04:28:05;;;;;;;22.63;10.73;;;0.40;99.90;;;;;;5014051;28;20053;-61
2021/01/09 04:30:31;;;;;;;29.75;11.82;;;0.30;99.90;;;;;;5014325;28;20113;-61
2021/01/09 04:32:57;;;;;;;21.45;10.18;;;0.40;99.90;;;;;;5013585;28;20092;-59
2021/01/09 04:35:23;;;;;;;21.35;9.38;;;0.40;99.90;;;;;;5013025;28;20030;-61
2021/01/09 04:37:49;;;;;;;23.30;9.95;;;0.40;99.90;;;;;;5012451;28;20056;-61
2021/01/09 04:40:15;;;;;;;23.33;10.05;;;0.40;99.90;;;;;;5013825;28;20052;-59
2021/01/09 04:42:40;;;;;;;23.38;9.95;;;0.50;99.90;;;;;;5013870;28;20068;-59
2021/01/09 04:45:07;;;;;;;26.38;11.88;;;0.40;99.90;;;;;;5013750;28;20088;-59
2021/01/09 04:47:37;;;;;;;26.65;10.75;;;0.50;99.90;;;;;;5013659;28;20041;-59
2021/01/09 04:50:03;;;;;;;21.58;9.98;;;0.70;99.90;;;;;;5012698;28;20121;-59
2021/01/09 04:52:31;;;;;;;21.27;9.75;;;0.70;99.90;;;;;;5029075;28;20034;-59
2021/01/09 04:54:57;;;;;;;24.02;10.05;;;0.70;99.90;;;;;;5012319;28;20053;-59
2021/01/09 04:57:23;;;;;;;24.13;10.35;;;0.80;99.90;;;;;;5012621;28;20022;-61
2021/01/09 04:59:51;;;;;;;24.50;9.55;;;0.80;99.90;;;;;;5013719;28;20145;-60
2021/01/09 05:02:17;;;;;;;23.33;10.57;;;0.90;99.90;;;;;;5013547;28;20041;-60
2021/01/09 05:04:45;;;;;;;22.52;10.45;;;0.90;99.90;;;;;;5013567;28;20033;-60
2021/01/09 05:07:12;;;;;;;23.38;9.65;;;1.00;99.90;;;;;;5012169;28;20033;-60
2021/01/09 05:09:38;;;;;;;23.38;10.38;;;1.00;99.90;;;;;;5013134;28;20042;-60
2021/01/09 05:12:05;;;;;;;21.00;9.30;;;1.10;99.90;;;;;;5013292;28;20048;-61
2021/01/09 05:14:34;;;;;;;21.80;9.40;;;1.20;99.90;;;;;;5013567;28;20045;-59
2021/01/09 05:17:02;;;;;;;20.13;8.82;;;1.20;99.90;;;;;;5012241;28;20128;-61
2021/01/09 05:19:29;;;;;;;20.40;9.50;;;1.30;99.90;;;;;;5013461;28;20033;-61
2021/01/09 05:22:01;;;;;;;18.08;8.48;;;1.40;99.90;;;;;;5013045;28;20038;-61
2021/01/09 05:24:28;;;;;;;24.50;10.40;;;1.40;99.90;;;;;;5013192;28;20037;-60
2021/01/09 05:26:54;;;;;;;21.95;9.65;;;1.40;99.90;;;;;;5013253;28;20026;-61
2021/01/09 05:29:21;;;;;;;19.90;9.13;;;1.40;99.90;;;;;;5012765;28;20129;-60
2021/01/09 05:31:48;;;;;;;21.65;9.63;;;1.40;99.90;;;;;;5012097;28;20026;-59
2021/01/09 05:34:14;;;;;;;21.23;8.77;;;1.40;99.90;;;;;;5012986;28;20065;-60
2021/01/09 05:36:41;;;;;;;21.52;9.43;;;1.40;99.90;;;;;;5012955;28;20033;-60
2021/01/09 05:39:07;;;;;;;21.38;9.48;;;1.40;99.90;;;;;;5013043;28;20030;-60
2021/01/09 05:41:33;;;;;;;21.55;9.35;;;1.40;99.90;;;;;;5012859;28;20026;-60
2021/01/09 05:44:04;;;;;;;24.17;8.93;;;1.30;99.90;;;;;;5012488;28;20088;-60
2021/01/09 05:46:36;;;;;;;21.70;8.68;;;1.30;99.90;;;;;;5012931;28;20029;-61
2021/01/09 05:49:04;;;;;;;18.85;8.70;;;1.30;99.90;;;;;;5012861;28;20478;-61
2021/01/09 05:51:35;;;;;;;20.70;9.25;;;1.30;99.90;;;;;;5012899;28;20034;-61
2021/01/09 05:54:01;;;;;;;22.75;9.32;;;1.40;99.90;;;;;;5012874;28;20034;-60
2021/01/09 05:56:28;;;;;;;23.90;10.35;;;1.30;99.90;;;;;;5012868;28;20030;-60
2021/01/09 05:58:55;;;;;;;20.58;8.93;;;1.30;99.90;;;;;;5012446;28;20034;-60
2021/01/09 06:01:26;;;;;;;22.25;9.20;;;1.40;99.90;;;;;;5012851;28;20033;-61
2021/01/09 06:04:16;;;;;;;19.65;8.18;;;1.30;99.90;;;;;;5011546;28;20041;-60
2021/01/09 06:07:10;;;;;;;22.58;9.18;;;1.30;99.90;;;;;;5012630;28;20032;-61
2021/01/09 06:09:52;;;;;;;19.98;8.88;;;1.30;99.90;;;;;;5012650;28;20034;-60
2021/01/09 06:12:22;;;;;;;22.52;9.60;;;1.20;99.90;;;;;;5012670;28;20034;-61
2021/01/09 06:14:50;;;;;;;22.23;8.40;;;1.10;99.90;;;;;;5012231;28;20052;-60
2021/01/09 06:17:20;;;;;;;20.15;9.35;;;1.20;99.90;;;;;;5012352;28;20042;-60
2021/01/09 06:19:46;;;;;;;19.25;8.40;;;1.20;99.90;;;;;;5011244;28;20038;-61
2021/01/09 06:22:13;;;;;;;21.55;10.00;;;1.20;99.90;;;;;;5012491;28;20034;-59
2021/01/09 06:24:40;;;;;;;21.95;9.23;;;1.20;99.90;;;;;;5012440;28;20041;-60
2021/01/09 06:27:17;;;;;;;19.50;8.68;;;1.20;99.90;;;;;;5012456;28;20025;-60
2021/01/09 06:29:48;;;;;;;24.13;10.32;;;1.10;99.90;;;;;;5010782;28;20045;-61
2021/01/09 06:32:20;;;;;;;23.33;9.53;;;1.10;99.90;;;;;;5011106;28;20037;-60
2021/01/09 06:34:50;;;;;;;24.17;9.32;;;1.00;99.90;;;;;;5012067;28;20049;-60
2021/01/09 06:37:22;;;;;;;23.08;9.40;;;1.20;99.90;;;;;;5012269;28;20038;-60
2021/01/09 06:39:50;;;;;;;23.55;9.95;;;1.20;99.90;;;;;;5011925;28;20026;-60
2021/01/09 06:42:19;;;;;;;19.27;9.20;;;1.10;99.90;;;;;;5012339;28;20037;-60
2021/01/09 06:44:53;;;;;;;22.55;10.18;;;1.10;99.90;;;;;;5014573;28;20040;-60
2021/01/09 06:47:31;;;;;;;22.25;8.82;;;1.10;99.90;;;;;;5016295;28;20034;-60
2021/01/09 06:50:19;;;;;;;21.75;9.63;;;1.20;99.90;;;;;;5016046;28;20045;-61
2021/01/09 06:52:54;;;;;;;23.85;9.98;;;1.10;99.90;;;;;;5015801;28;20042;-61
2021/01/09 06:55:40;;;;;;;26.00;10.88;;;1.10;99.90;;;;;;5016191;28;20038;-60
2021/01/09 06:58:09;;;;;;;27.38;10.13;;;1.10;99.90;;;;;;5008446;28;20045;-59
2021/01/09 07:00:36;;;;;;;20.35;10.15;;;1.10;99.90;;;;;;5015663;28;20037;-60
2021/01/09 07:03:13;;;;;;;22.23;9.75;;;1.00;99.90;;;;;;4991820;28;20038;-60
2021/01/09 07:05:53;;;;;;;23.48;10.07;;;1.00;99.90;;;;;;4994960;28;20035;-60
2021/01/09 07:08:30;;;;;;;22.90;10.00;;;1.00;99.90;;;;;;4996394;28;20034;-59
2021/01/09 07:11:05;;;;;;;23.95;10.50;;;1.00;99.90;;;;;;4994887;28;20030;-60
2021/01/09 07:13:32;;;;;;;23.13;10.05;;;1.00;99.90;;;;;;4996157;28;20027;-60
2021/01/09 07:16:14;;;;;;;24.73;9.88;;;1.00;99.90;;;;;;4996031;28;20030;-61
2021/01/09 07:18:49;;;;;;;22.95;9.13;;;1.00;99.90;;;;;;4996103;28;20026;-61
2021/01/09 07:21:20;;;;;;;29.08;10.15;;;1.00;99.90;;;;;;4994794;28;20100;-60
2021/01/09 07:23:53;;;;;;;22.52;9.75;;;0.90;99.90;;;;;;4995648;28;20034;-60
2021/01/09 07:26:20;;;;;;;25.75;10.13;;;0.90;99.90;;;;;;4995981;28;20042;-60
2021/01/09 07:28:48;;;;;;;22.83;10.60;;;0.90;99.90;;;;;;4994091;28;20046;-60
2021/01/09 07:31:14;;;;;;;22.13;9.68;;;1.00;99.90;;;;;;4995750;28;20077;-61
2021/01/09 07:33:44;;;;;;;24.17;10.60;;;0.90;99.90;;;;;;4995751;28;20470;-60
2021/01/09 07:36:13;;;;;;;23.27;9.82;;;1.00;99.90;;;;;;4995511;28;20038;-58
2021/01/09 07:38:47;;;;;;;27.80;10.48;;;1.00;99.90;;;;;;4995543;28;20037;-58
2021/01/09 07:41:43;;;;;;;29.95;11.00;;;1.00;99.90;;;;;;4995516;28;20038;-57
2021/01/09 07:44:16;;;;;;;21.88;9.93;;;1.10;99.90;;;;;;4990516;28;20045;-58
2021/01/09 07:47:10;;;;;;;26.02;9.93;;;1.10;99.90;;;;;;4995253;28;20052;-58
2021/01/09 07:49:37;;;;;;;23.63;9.82;;;1.10;99.90;;;;;;4993585;28;20042;-57
2021/01/09 07:52:04;;;;;;;21.88;11.05;;;1.20;99.90;;;;;;4995196;28;20041;-58
2021/01/09 07:54:39;;;;;;;24.60;10.63;;;1.20;99.90;;;;;;4994676;28;20046;-58
2021/01/09 07:57:25;;;;;;;22.65;10.10;;;1.30;99.90;;;;;;4995114;28;20034;-59
2021/01/09 07:59:53;;;;;;;21.13;9.63;;;1.30;99.90;;;;;;4994925;28;20046;-58
2021/01/09 08:02:37;;;;;;;20.70;9.93;;;1.30;99.90;;;;;;4995087;28;20038;-58
2021/01/09 08:05:20;;;;;;;25.83;10.35;;;1.30;99.90;;;;;;4993653;28;20022;-58
2021/01/09 08:08:00;;;;;;;21.52;9.98;;;1.30;99.90;;;;;;4994513;28;20037;-56
2021/01/09 08:10:34;;;;;;;23.38;10.65;;;1.30;99.90;;;;;;4994168;28;20144;-56
2021/01/09 08:13:05;;;;;;;19.25;9.18;;;1.30;99.90;;;;;;4989729;28;20035;-55
2021/01/09 08:15:34;;;;;;;23.20;9.43;;;1.30;99.90;;;;;;4975391;28;20030;-51
2021/01/09 08:18:05;;;;;;;26.90;10.70;;;1.30;99.90;;;;;;4982081;28;20042;-56
2021/01/09 08:20:33;;;;;;;24.95;9.68;;;1.30;99.90;;;;;;5014187;28;20075;-58
2021/01/09 08:23:04;;;;;;;23.60;10.23;;;1.30;99.90;;;;;;5014148;28;20041;-58
2021/01/09 08:25:38;;;;;;;25.27;10.25;;;1.40;99.90;;;;;;5014003;28;20104;-58
2021/01/09 08:28:06;;;;;;;20.63;8.52;;;1.40;99.90;;;;;;5013742;28;20109;-58
2021/01/09 08:30:34;;;;;;;21.33;9.75;;;1.60;99.90;;;;;;5014084;28;20030;-59
2021/01/09 08:33:13;;;;;;;22.02;10.15;;;1.60;99.90;;;;;;5012379;28;20034;-58
2021/01/09 08:35:50;;;;;;;23.25;10.40;;;1.80;99.90;;;;;;5013829;28;20096;-59
2021/01/09 08:38:17;;;;;;;23.98;9.55;;;1.90;99.90;;;;;;5013726;28;20041;-58
2021/01/09 08:40:44;;;;;;;24.65;10.32;;;1.90;99.90;;;;;;5012279;28;20120;-57
2021/01/09 08:43:15;;;;;;;23.05;9.93;;;1.90;99.90;;;;;;4994045;28;20034;-57
2021/01/09 08:45:53;;;;;;;22.50;9.77;;;1.90;99.90;;;;;;4994012;28;20038;-58
2021/01/09 08:48:28;;;;;;;25.30;10.25;;;1.90;99.90;;;;;;4994376;28;20034;-70
2021/01/09 08:51:02;;;;;;;23.35;10.18;;;2.00;99.90;;;;;;4993995;28;20058;-59
2021/01/09 08:53:47;;;;;;;23.10;11.05;;;2.20;99.90;;;;;;4993783;28;20129;-60
2021/01/09 08:56:15;;;;;;;25.70;10.82;;;2.20;99.90;;;;;;4992246;28;20084;-60
2021/01/09 08:58:43;;;;;;;22.63;9.88;;;2.30;99.90;;;;;;5008809;28;20042;-60
2021/01/09 09:01:14;;;;;;;25.52;10.05;;;2.40;99.90;;;;;;4993602;28;20077;-60
2021/01/09 09:03:48;;;;;;;22.23;9.38;;;2.50;99.90;;;;;;5008588;28;20035;-59
2021/01/09 09:06:16;;;;;;;18.35;9.85;;;2.60;99.90;;;;;;4993015;28;20038;-58
2021/01/09 09:08:43;;;;;;;23.17;10.55;;;2.70;99.90;;;;;;4993162;28;20070;-58
2021/01/09 09:11:10;;;;;;;23.52;9.57;;;2.80;99.90;;;;;;4993176;28;20050;-58
2021/01/09 09:13:36;;;;;;;25.48;10.70;;;2.90;99.90;;;;;;4993757;28;20588;-57
2021/01/09 09:16:32;;;;;;;23.33;10.18;;;3.00;99.90;;;;;;4993630;28;20032;-58
2021/01/09 09:19:12;;;;;;;20.33;9.13;;;3.20;99.90;;;;;;4984181;28;20043;-56
2021/01/09 09:21:47;;;;;;;20.63;9.15;;;3.40;99.90;;;;;;4993785;28;20030;-55
2021/01/09 09:24:16;;;;;;;25.52;10.07;;;3.20;99.90;;;;;;5008376;28;20037;-59
2021/01/09 09:26:43;;;;;;;19.83;8.98;;;3.40;99.90;;;;;;4993522;28;20030;-59
2021/01/09 09:29:10;;;;;;;20.17;9.85;;;3.10;99.90;;;;;;4993129;28;20096;-56
2021/01/09 09:31:43;;;;;;;19.05;8.38;;;3.40;99.90;;;;;;4992296;28;20031;-57
2021/01/09 09:34:15;;;;;;;21.67;8.68;;;3.40;99.90;;;;;;4993350;28;20054;-57
2021/01/09 09:37:01;;;;;;;20.40;8.68;;;3.50;99.90;;;;;;4993347;28;20084;-57
2021/01/09 09:39:27;;;;;;;18.08;8.85;;;3.40;99.90;;;;;;4992961;28;20046;-59
2021/01/09 09:42:03;;;;;;;17.85;9.02;;;3.40;99.90;;;;;;4992979;28;20026;-58
2021/01/09 09:44:44;;;;;;;23.42;11.07;;;3.60;99.90;;;;;;4993281;28;20038;-57
2021/01/09 09:47:25;;;;;;;18.17;7.97;;;3.40;99.90;;;;;;4993196;28;20030;-57
2021/01/09 09:49:51;;;;;;;16.15;8.00;;;3.70;99.90;;;;;;4992899;28;20057;-57
2021/01/09 09:52:21;;;;;;;15.77;8.40;;;3.80;99.90;;;;;;4992598;28;20030;-56
2021/01/09 09:55:09;;;;;;;17.42;8.82;;;3.60;99.90;;;;;;5008180;28;20038;-55
2021/01/09 09:57:35;;;;;;;19.45;9.43;;;3.80;99.90;;;;;;4992820;28;20030;-56
2021/01/09 10:00:12;;;;;;;16.90;7.93;;;3.60;99.90;;;;;;4992559;28;20121;-57
2021/01/09 10:02:55;;;;;;;17.48;6.97;;;4.40;99.90;;;;;;4993037;28;20081;-58
2021/01/09 10:05:23;;;;;;;13.93;6.75;;;6.10;99.90;;;;;;5007347;28;20037;-57
2021/01/09 10:07:49;;;;;;;16.10;6.93;;;7.20;99.90;;;;;;4992886;28;20035;-57
2021/01/09 10:10:20;;;;;;;13.20;7.60;;;8.10;99.90;;;;;;4992545;28;20034;-58
2021/01/09 10:13:23;;;;;;;13.45;7.32;;;8.70;99.90;;;;;;5011084;28;20037;-58
2021/01/09 10:15:49;;;;;;;11.18;5.47;;;10.50;98.20;;;;;;5012488;28;20057;-59
2021/01/09 10:18:15;;;;;;;11.75;6.70;;;12.40;94.10;;;;;;5011944;28;20072;-58
2021/01/09 10:20:41;;;;;;;12.75;6.57;;;13.20;90.90;;;;;;5012437;28;20038;-60
2021/01/09 10:23:07;;;;;;;11.10;6.18;;;13.80;84.90;;;;;;5012547;28;20057;-56
2021/01/09 10:25:33;;;;;;;9.15;5.50;;;13.00;86.60;;;;;;5012110;28;20029;-57
2021/01/09 10:27:59;;;;;;;12.77;6.78;;;14.20;80.70;;;;;;5008466;28;20038;-56
2021/01/09 10:30:25;;;;;;;21.70;10.80;;;10.60;86.90;;;;;;5011723;28;20045;-57
2021/01/09 10:32:51;;;;;;;13.10;6.63;;;13.30;87.70;;;;;;5011115;28;20030;-58
2021/01/09 10:35:17;;;;;;;14.68;7.93;;;14.30;80.80;;;;;;5009639;28;20046;-56
2021/01/09 10:37:42;;;;;;;9.30;6.10;;;15.00;75.70;;;;;;5012164;28;20030;-58
2021/01/09 10:40:09;;;;;;;11.35;6.30;;;15.00;72.00;;;;;;5011678;28;20030;-57
2021/01/09 10:42:35;;;;;;;15.77;7.63;;;14.40;72.60;;;;;;4995202;28;20026;-58
2021/01/09 10:45:01;;;;;;;14.88;7.50;;;11.80;83.50;;;;;;4992501;28;20030;-57
2021/01/09 10:47:30;;;;;;;12.68;6.97;;;11.20;90.60;;;;;;4991711;28;20129;-57
2021/01/09 10:49:56;;;;;;;12.77;7.22;;;12.30;90.30;;;;;;4992190;28;20069;-56
2021/01/09 10:52:22;;;;;;;13.80;6.45;;;13.20;85.40;;;;;;4992673;28;20058;-59
2021/01/09 10:54:48;;;;;;;17.17;7.45;;;13.90;82.10;;;;;;4992645;28;20034;-59
2021/01/09 10:57:14;;;;;;;11.80;6.90;;;14.30;81.10;;;;;;4992224;28;20061;-58
2021/01/09 10:59:40;;;;;;;14.07;7.68;;;12.60;80.10;;;;;;4992610;28;20034;-58
2021/01/09 11:02:08;;;;;;;14.38;7.30;;;13.80;85.20;;;;;;4992014;28;20054;-57
2021/01/09 11:04:34;;;;;;;12.55;7.60;;;14.00;78.80;;;;;;4992492;28;20085;-58
2021/01/09 11:07:01;;;;;;;12.40;7.10;;;13.90;82.60;;;;;;4991152;28;20066;-58
2021/01/09 11:09:27;;;;;;;11.38;7.00;;;13.80;81.70;;;;;;4992347;28;20122;-58
2021/01/09 11:11:53;;;;;;;11.85;6.75;;;13.90;78.00;;;;;;5003273;28;20041;-57
2021/01/09 11:14:19;;;;;;;13.35;7.25;;;13.40;80.00;;;;;;5011536;28;20033;-58
2021/01/09 11:16:45;;;;;;;11.15;6.72;;;11.70;86.50;;;;;;5012087;28;20041;-57
2021/01/09 11:19:11;;;;;;;13.13;7.57;;;13.20;83.90;;;;;;5011570;28;20034;-57
2021/01/09 11:21:38;;;;;;;10.48;5.90;;;14.10;83.20;;;;;;5011980;28;20394;-59
2021/01/09 11:24:05;;;;;;;11.27;6.75;;;13.80;79.00;;;;;;5011800;28;20034;-58
2021/01/09 11:26:31;;;;;;;10.38;6.55;;;15.00;77.00;;;;;;5011534;28;20039;-56
2021/01/09 11:28:57;;;;;;;10.50;6.07;;;13.30;74.50;;;;;;5011256;28;20049;-56
2021/01/09 11:31:24;;;;;;;11.65;6.63;;;9.50;94.20;;;;;;5014434;28;20037;-53
2021/01/09 11:33:51;;;;;;;11.75;6.22;;;7.90;97.90;;;;;;5015056;28;20033;-56
2021/01/09 11:36:18;;;;;;;10.57;5.28;;;7.50;99.40;;;;;;5014909;28;20075;-57
2021/01/09 11:38:47;;;;;;;12.68;6.20;;;7.80;99.80;;;;;;5014838;28;20547;-55
2021/01/09 11:41:15;;;;;;;11.23;5.38;;;7.40;99.80;;;;;;5009339;28;20034;-55
2021/01/09 11:43:42;;;;;;;10.60;5.90;;;7.10;99.90;;;;;;4995513;28;20061;-56
2021/01/09 11:46:10;;;;;;;10.50;5.70;;;6.80;99.90;;;;;;4995246;28;20035;-56
2021/01/09 11:48:36;;;;;;;12.77;5.53;;;5.30;99.90;;;;;;4995177;28;20038;-55
2021/01/09 11:51:03;;;;;;;12.98;6.28;;;4.90;99.90;;;;;;4995020;28;20030;-54
2021/01/09 11:53:29;;;;;;;15.30;7.72;;;4.70;99.90;;;;;;4995113;28;20030;-57
2021/01/09 11:55:55;;;;;;;20.65;10.00;;;5.20;99.90;;;;;;4995196;28;20162;-52
2021/01/09 11:58:21;;;;;;;13.10;6.28;;;5.50;99.90;;;;;;4995102;28;20073;-52
2021/01/09 12:00:47;;;;;;;12.15;6.38;;;5.40;99.90;;;;;;4995211;28;20029;-56
2021/01/09 12:03:14;;;;;;;13.07;6.13;;;6.30;99.90;;;;;;4994597;28;20045;-56
2021/01/09 12:05:40;;;;;;;10.00;4.80;;;8.00;99.90;;;;;;4995173;28;20039;-55
2021/01/09 12:08:06;;;;;;;10.98;5.38;;;10.00;95.30;;;;;;4994851;28;20038;-54
2021/01/09 12:10:33;;;;;;;11.15;4.90;;;10.50;93.80;;;;;;4994997;28;20118;-58
2021/01/09 12:13:04;;;;;;;8.82;4.75;;;12.10;89.60;;;;;;5013369;28;20038;-58
2021/01/09 12:15:31;;;;;;;9.68;4.97;;;12.60;79.80;;;;;;5014646;28;20030;-56
2021/01/09 12:17:57;;;;;;;10.50;4.72;;;11.10;79.50;;;;;;5014473;28;20033;-53
2021/01/09 12:20:23;;;;;;;10.63;5.13;;;9.60;90.10;;;;;;5014273;28;20030;-58
2021/01/09 12:22:49;;;;;;;11.50;4.55;;;8.80;94.50;;;;;;5014256;28;20030;-59
2021/01/09 12:25:15;;;;;;;8.90;5.03;;;6.10;99.30;;;;;;5014301;28;20092;-56
2021/01/09 12:27:40;;;;;;;9.25;4.97;;;7.30;99.90;;;;;;5014274;28;20041;-56
2021/01/09 12:30:07;;;;;;;10.02;4.75;;;8.30;98.10;;;;;;5013729;28;20077;-57
2021/01/09 12:32:33;;;;;;;9.43;5.03;;;9.40;94.20;;;;;;5014078;28;20096;-57
2021/01/09 12:35:03;;;;;;;9.30;5.05;;;8.50;94.30;;;;;;5012100;28;20054;-59
2021/01/09 12:37:29;;;;;;;7.90;4.47;;;8.30;96.20;;;;;;5028720;28;20122;-58
2021/01/09 12:39:54;;;;;;;11.02;4.97;;;8.00;95.30;;;;;;5014116;28;20229;-58
2021/01/09 12:42:24;;;;;;;8.50;4.07;;;6.90;99.90;;;;;;4998660;28;20062;-49
2021/01/09 12:44:51;;;;;;;9.98;4.95;;;8.40;99.60;;;;;;4994449;28;20038;-59
2021/01/09 12:47:17;;;;;;;9.77;4.75;;;9.50;95.30;;;;;;4993872;28;20034;-58
2021/01/09 12:49:43;;;;;;;6.85;3.97;;;9.00;92.80;;;;;;4994430;28;20062;-59